createdAt,value
2023-01-25T00:01:42.127Z,50.78
2023-01-25T00:03:44.992Z,39.88
2023-01-25T00:05:47.703Z,45.28
2023-01-25T00:07:50.409Z,54.22
2023-01-25T00:09:53.285Z,54.30
2023-01-25T00:11:58.136Z,49.80
2023-01-25T00:14:02.189Z,42.15
2023-01-25T00:16:06.096Z,43.47
2023-01-25T00:18:08.942Z,34.47
2023-01-25T00:20:12.304Z,36.55
2023-01-25T00:22:15.029Z,37.10
2023-01-25T00:24:18.124Z,40.92
2023-01-25T00:26:21.584Z,36.03
2023-01-25T00:28:24.364Z,35.25
2023-01-25T00:30:28.429Z,36.10
2023-01-25T00:32:50.643Z,38.60
2023-01-25T00:34:53.735Z,38.17
2023-01-25T00:36:58.127Z,38.38
2023-01-25T00:39:00.991Z,35.10
2023-01-25T00:41:03.716Z,39.38
2023-01-25T00:43:06.396Z,38.30
2023-01-25T00:45:12.760Z,37.15
2023-01-25T00:47:17.400Z,42.70
2023-01-25T00:49:22.278Z,38.40
2023-01-25T00:51:25.702Z,36.90
2023-01-25T00:53:28.471Z,31.92
2023-01-25T00:55:31.332Z,36.13
2023-01-25T00:57:34.120Z,36.25
2023-01-25T00:59:36.925Z,36.25
2023-01-25T01:01:41.829Z,33.58
2023-01-25T01:03:45.958Z,32.03
2023-01-25T01:05:49.641Z,36.00
2023-01-25T01:07:52.441Z,36.63
2023-01-25T01:09:55.306Z,34.28
2023-01-25T01:12:00.721Z,34.67
2023-01-25T01:14:03.457Z,33.70
2023-01-25T01:16:11.787Z,33.72
2023-01-25T01:18:14.556Z,32.55
2023-01-25T01:20:18.919Z,36.30
2023-01-25T01:22:21.694Z,34.08
2023-01-25T01:24:24.593Z,36.88
2023-01-25T01:26:27.497Z,35.38
2023-01-25T01:28:30.660Z,36.10
2023-01-25T01:30:33.549Z,33.22
2023-01-25T01:32:36.399Z,36.50
2023-01-25T01:34:39.468Z,38.45
2023-01-25T01:36:44.325Z,34.20
2023-01-25T01:38:47.553Z,39.53
2023-01-25T01:40:51.525Z,48.13
2023-01-25T01:42:59.476Z,34.10
2023-01-25T01:45:02.523Z,40.42
2023-01-25T01:47:05.563Z,35.78
2023-01-25T01:49:15.364Z,36.17
2023-01-25T01:51:24.279Z,35.97
2023-01-25T01:53:30.885Z,38.17
2023-01-25T01:55:34.608Z,41.40
2023-01-25T01:57:42.669Z,42.53
2023-01-25T01:59:51.754Z,39.80
2023-01-25T02:01:55.762Z,36.30
2023-01-25T02:03:58.841Z,42.28
2023-01-25T02:06:05.842Z,37.08
2023-01-25T02:08:13.278Z,36.38
2023-01-25T02:10:18.361Z,38.85
2023-01-25T02:12:24.359Z,37.25
2023-01-25T02:14:29.051Z,37.83
2023-01-25T02:16:32.327Z,38.42
2023-01-25T02:18:35.136Z,36.45
2023-01-25T02:20:41.318Z,35.45
2023-01-25T02:22:51.173Z,33.30
2023-01-25T02:25:04.151Z,37.33
2023-01-25T02:27:08.667Z,33.08
2023-01-25T02:29:11.887Z,35.72
2023-01-25T02:31:14.772Z,33.38
2023-01-25T02:33:17.685Z,34.47
2023-01-25T02:35:22.035Z,35.67
2023-01-25T02:37:25.686Z,35.05
2023-01-25T02:39:29.329Z,34.70
2023-01-25T02:41:36.042Z,35.47
2023-01-25T02:43:39.297Z,36.15
2023-01-25T02:45:42.440Z,38.35
2023-01-25T02:47:45.274Z,36.90
2023-01-25T02:49:48.233Z,35.47
2023-01-25T02:51:55.923Z,32.85
2023-01-25T02:54:00.028Z,33.30
2023-01-25T02:56:03.142Z,31.05
2023-01-25T02:58:08.465Z,34.75
2023-01-25T03:00:12.428Z,31.23
2023-01-25T03:02:15.199Z,31.90
2023-01-25T03:04:18.871Z,35.55
2023-01-25T03:06:23.704Z,35.95
2023-01-25T03:08:26.852Z,30.73
2023-01-25T03:10:30.230Z,30.77
2023-01-25T03:12:34.059Z,36.15
2023-01-25T03:14:38.196Z,30.60
2023-01-25T03:16:41.898Z,30.38
2023-01-25T03:18:44.740Z,35.10
2023-01-25T03:20:48.135Z,32.83
2023-01-25T03:22:51.026Z,32.10
2023-01-25T03:24:53.888Z,32.40
2023-01-25T03:27:14.183Z,31.40
2023-01-25T03:29:20.453Z,29.75
2023-01-25T03:31:26.570Z,32.53
2023-01-25T03:33:29.445Z,30.95
2023-01-25T03:35:32.237Z,32.78
2023-01-25T03:37:35.030Z,30.15
2023-01-25T03:39:39.479Z,30.10
2023-01-25T03:41:42.249Z,32.92
2023-01-25T03:43:47.440Z,29.92
2023-01-25T03:45:54.240Z,31.33
2023-01-25T03:47:58.349Z,30.10
2023-01-25T03:50:01.157Z,30.27
2023-01-25T03:52:05.145Z,29.13
2023-01-25T03:54:13.234Z,26.85
2023-01-25T03:56:20.232Z,27.90
2023-01-25T03:58:45.659Z,28.27
2023-01-25T04:00:48.927Z,29.65
2023-01-25T04:02:51.801Z,28.73
2023-01-25T04:04:57.604Z,34.10
2023-01-25T04:07:00.386Z,30.33
2023-01-25T04:09:04.644Z,30.35
2023-01-25T04:11:14.355Z,28.02
2023-01-25T04:13:20.986Z,26.33
2023-01-25T04:15:23.761Z,25.77
2023-01-25T04:17:27.200Z,27.50
2023-01-25T04:19:35.405Z,29.40
2023-01-25T04:21:41.345Z,26.17
2023-01-25T04:23:44.271Z,24.52
2023-01-25T04:25:54.174Z,29.00
2023-01-25T04:27:57.042Z,28.20
2023-01-25T04:30:00.103Z,27.75
2023-01-25T04:32:04.156Z,27.58
2023-01-25T04:34:07.305Z,30.63
2023-01-25T04:36:10.240Z,33.85
2023-01-25T04:38:15.187Z,31.50
2023-01-25T04:40:20.136Z,25.77
2023-01-25T04:42:23.149Z,23.55
2023-01-25T04:44:29.907Z,24.13
2023-01-25T04:46:34.780Z,27.02
2023-01-25T04:48:38.030Z,26.20
2023-01-25T04:50:44.039Z,22.98
2023-01-25T04:52:46.936Z,24.38
2023-01-25T04:54:51.385Z,26.35
2023-01-25T04:56:54.304Z,24.80
2023-01-25T04:58:57.211Z,25.05
2023-01-25T05:01:02.259Z,26.02
2023-01-25T05:03:05.535Z,25.25
2023-01-25T05:05:09.497Z,24.38
2023-01-25T05:07:12.475Z,24.95
2023-01-25T05:09:17.228Z,22.90
2023-01-25T05:11:22.359Z,22.48
2023-01-25T05:13:25.169Z,24.38
2023-01-25T05:15:36.968Z,23.00
2023-01-25T05:17:39.942Z,24.65
2023-01-25T05:19:44.481Z,25.10
2023-01-25T05:21:59.818Z,24.30
2023-01-25T05:24:22.998Z,22.20
2023-01-25T05:26:44.709Z,23.15
2023-01-25T05:28:47.576Z,23.65
2023-01-25T05:31:19.597Z,24.17
2023-01-25T05:33:23.244Z,27.55
2023-01-25T05:35:26.475Z,26.45
2023-01-25T05:37:31.601Z,28.40
2023-01-25T05:39:38.939Z,25.38
2023-01-25T05:41:43.057Z,33.38
2023-01-25T05:43:49.047Z,26.55
2023-01-25T05:45:54.397Z,25.08
2023-01-25T05:47:58.781Z,23.45
2023-01-25T05:50:01.951Z,21.65
2023-01-25T05:52:18.414Z,20.17
2023-01-25T05:54:21.208Z,20.50
2023-01-25T05:56:34.442Z,19.40
2023-01-25T05:58:38.886Z,19.80
2023-01-25T06:00:41.645Z,22.25
2023-01-25T06:02:45.156Z,21.10
2023-01-25T06:04:52.538Z,20.33
2023-01-25T06:06:55.391Z,17.70
2023-01-25T06:08:58.565Z,19.20
2023-01-25T06:11:08.069Z,16.60
2023-01-25T06:13:11.392Z,16.35
2023-01-25T06:15:16.699Z,19.17
2023-01-25T06:17:20.468Z,17.17
2023-01-25T06:19:44.436Z,17.75
2023-01-25T06:22:11.588Z,14.05
2023-01-25T06:24:14.383Z,16.35
2023-01-25T06:26:17.244Z,16.35
2023-01-25T06:28:20.127Z,16.05
2023-01-25T06:30:24.274Z,17.90
2023-01-25T06:32:27.294Z,16.92
2023-01-25T06:34:30.011Z,17.90
2023-01-25T06:36:33.382Z,16.75
2023-01-25T06:38:36.150Z,16.35
2023-01-25T06:40:38.889Z,15.55
2023-01-25T06:42:41.721Z,17.30
2023-01-25T06:44:44.459Z,16.48
2023-01-25T06:46:48.804Z,17.65
2023-01-25T06:48:51.578Z,17.25
2023-01-25T06:50:59.625Z,17.83
2023-01-25T06:53:02.469Z,16.52
2023-01-25T06:55:07.658Z,17.85
2023-01-25T06:57:12.070Z,20.20
2023-01-25T06:59:16.058Z,21.30
2023-01-25T07:01:21.532Z,22.45
2023-01-25T07:03:25.734Z,18.30
2023-01-25T07:05:28.571Z,17.92
2023-01-25T07:07:31.666Z,17.27
2023-01-25T07:09:34.473Z,18.85
2023-01-25T07:11:37.640Z,17.67
2023-01-25T07:13:40.980Z,20.25
2023-01-25T07:15:43.837Z,18.95
2023-01-25T07:17:46.627Z,18.98
2023-01-25T07:19:50.864Z,22.10
2023-01-25T07:21:53.706Z,21.23
2023-01-25T07:24:01.361Z,18.55
2023-01-25T07:26:05.209Z,21.58
2023-01-25T07:28:07.982Z,17.58
2023-01-25T07:30:12.197Z,18.63
2023-01-25T07:32:15.126Z,20.92
2023-01-25T07:34:18.044Z,20.85
2023-01-25T07:36:22.903Z,17.70
2023-01-25T07:38:25.915Z,18.38
2023-01-25T07:40:28.674Z,18.17
2023-01-25T07:42:31.385Z,20.02
2023-01-25T07:44:48.198Z,17.85
2023-01-25T07:46:50.954Z,19.95
2023-01-25T07:48:54.537Z,16.55
2023-01-25T07:51:12.456Z,17.13
2023-01-25T07:53:16.649Z,15.77
2023-01-25T07:55:19.493Z,16.60
2023-01-25T07:57:22.468Z,17.35
2023-01-25T07:59:25.990Z,16.63
2023-01-25T08:01:29.748Z,14.15
2023-01-25T08:03:32.444Z,14.52
2023-01-25T08:05:35.175Z,15.60
2023-01-25T08:07:37.955Z,15.82
2023-01-25T08:09:43.168Z,17.92
2023-01-25T08:11:45.890Z,17.13
2023-01-25T08:13:49.807Z,14.52
2023-01-25T08:15:55.936Z,15.35
2023-01-25T08:18:00.518Z,14.73
2023-01-25T08:20:04.498Z,15.70
2023-01-25T08:22:08.885Z,15.40
2023-01-25T08:24:11.885Z,14.02
2023-01-25T08:26:18.119Z,14.77
2023-01-25T08:28:20.873Z,15.60
2023-01-25T08:30:23.709Z,18.88
2023-01-25T08:32:26.450Z,15.18
2023-01-25T08:34:31.256Z,16.63
2023-01-25T08:36:34.668Z,17.33
2023-01-25T08:38:37.714Z,17.13
2023-01-25T08:40:40.406Z,14.95
2023-01-25T08:42:44.424Z,17.30
2023-01-25T08:44:47.127Z,18.15
2023-01-25T08:46:49.837Z,17.42
2023-01-25T08:48:54.628Z,19.13
2023-01-25T08:50:57.385Z,17.80
2023-01-25T08:53:00.201Z,18.13
2023-01-25T08:55:03.095Z,15.82
2023-01-25T08:57:06.285Z,16.30
2023-01-25T08:59:12.900Z,17.00
2023-01-25T09:01:17.515Z,17.63
2023-01-25T09:03:20.279Z,16.52
2023-01-25T09:05:22.981Z,16.35
2023-01-25T09:07:25.710Z,17.80
2023-01-25T09:09:29.906Z,18.13
2023-01-25T09:11:37.002Z,16.60
2023-01-25T09:13:43.337Z,17.02
2023-01-25T09:15:47.437Z,18.10
2023-01-25T09:17:51.979Z,17.60
2023-01-25T09:19:54.713Z,16.65
2023-01-25T09:21:57.437Z,20.52
2023-01-25T09:24:08.628Z,16.20
2023-01-25T09:26:15.301Z,16.15
2023-01-25T09:28:18.009Z,15.77
2023-01-25T09:30:23.186Z,15.60
2023-01-25T09:32:33.034Z,17.00
2023-01-25T09:34:35.777Z,17.80
2023-01-25T09:36:38.560Z,19.52
2023-01-25T09:38:41.366Z,17.13
2023-01-25T09:40:54.207Z,18.58
2023-01-25T09:43:06.722Z,18.02
2023-01-25T09:45:21.491Z,21.00
2023-01-25T09:47:30.613Z,18.88
2023-01-25T09:49:54.956Z,19.88
2023-01-25T09:52:17.001Z,17.00
2023-01-25T09:54:20.990Z,17.77
2023-01-25T09:56:26.835Z,16.95
2023-01-25T09:58:34.873Z,16.00
2023-01-25T10:00:43.561Z,15.77
2023-01-25T10:02:51.914Z,16.48
2023-01-25T10:05:02.534Z,16.35
2023-01-25T10:07:15.516Z,16.27
2023-01-25T10:09:28.550Z,17.20
2023-01-25T10:11:33.155Z,15.45
2023-01-25T10:13:35.937Z,16.23
2023-01-25T10:15:42.175Z,15.88
2023-01-25T10:17:45.158Z,17.42
2023-01-25T10:20:04.391Z,18.40
2023-01-25T10:22:16.308Z,17.42
2023-01-25T10:24:41.475Z,15.98
2023-01-25T10:26:49.400Z,16.50
2023-01-25T10:28:58.725Z,17.35
2023-01-25T10:31:04.432Z,18.83
2023-01-25T10:33:14.428Z,19.67
2023-01-25T10:35:34.427Z,18.88
2023-01-25T10:37:38.358Z,16.00
2023-01-25T10:39:47.560Z,15.95
2023-01-25T10:41:55.912Z,17.13
2023-01-25T10:44:12.648Z,17.63
2023-01-25T10:46:25.535Z,20.00
2023-01-25T10:48:33.026Z,19.40
2023-01-25T10:50:52.245Z,19.98
2023-01-25T10:52:59.606Z,19.38
2023-01-25T10:55:18.155Z,18.77
2023-01-25T10:57:23.479Z,18.35
2023-01-25T10:59:28.530Z,17.98
2023-01-25T11:01:33.260Z,18.80
2023-01-25T11:03:38.886Z,20.13
2023-01-25T11:05:41.817Z,19.25
2023-01-25T11:07:46.406Z,19.70
2023-01-25T11:09:49.186Z,21.55
2023-01-25T11:11:56.218Z,20.10
2023-01-25T11:13:59.081Z,21.27
2023-01-25T11:16:22.278Z,21.63
2023-01-25T11:18:28.569Z,21.15
2023-01-25T11:20:31.283Z,21.48
2023-01-25T11:22:34.261Z,19.33
2023-01-25T11:24:38.454Z,19.42
2023-01-25T11:26:42.075Z,19.27
2023-01-25T11:28:46.093Z,22.67
2023-01-25T11:30:49.694Z,20.48
2023-01-25T11:32:52.651Z,19.70
2023-01-25T11:34:56.067Z,19.80
2023-01-25T11:37:13.986Z,20.27
2023-01-25T11:39:30.829Z,21.50
2023-01-25T11:41:47.314Z,20.75
2023-01-25T11:44:06.648Z,21.08
2023-01-25T11:46:22.402Z,22.25
2023-01-25T11:48:49.379Z,22.13
2023-01-25T11:51:01.837Z,19.63
2023-01-25T11:53:27.534Z,22.40
2023-01-25T11:55:35.820Z,24.38
2023-01-25T11:58:01.605Z,22.15
2023-01-25T12:00:36.209Z,23.25
2023-01-25T12:03:05.706Z,21.23
2023-01-25T12:05:33.624Z,23.33
2023-01-25T12:07:54.560Z,21.60
2023-01-25T12:10:14.224Z,21.88
2023-01-25T12:12:25.713Z,20.75
2023-01-25T12:14:43.037Z,21.60
2023-01-25T12:17:07.993Z,21.80
2023-01-25T12:19:45.754Z,20.77
2023-01-25T12:22:05.131Z,20.10
2023-01-25T12:24:33.387Z,19.10
2023-01-25T12:26:47.355Z,20.55
2023-01-25T12:28:52.925Z,23.05
2023-01-25T12:31:03.007Z,22.35
2023-01-25T12:33:15.101Z,20.95
2023-01-25T12:35:31.745Z,19.38
2023-01-25T12:37:42.119Z,20.92
2023-01-25T12:39:49.994Z,22.02
2023-01-25T12:41:57.043Z,20.50
2023-01-25T12:44:09.772Z,21.63
2023-01-25T12:46:20.633Z,22.25
2023-01-25T12:48:28.176Z,22.30
2023-01-25T12:50:36.084Z,21.35
2023-01-25T12:52:42.191Z,19.38
2023-01-25T12:54:47.265Z,21.60
2023-01-25T12:56:58.285Z,21.45
2023-01-25T12:59:09.132Z,19.75
2023-01-25T13:01:25.352Z,25.13
2023-01-25T13:03:34.541Z,19.80
2023-01-25T13:05:43.028Z,22.70
2023-01-25T13:07:54.532Z,20.67
2023-01-25T13:10:02.531Z,20.50
2023-01-25T13:12:06.623Z,21.13
2023-01-25T13:14:27.593Z,21.85
2023-01-25T13:16:38.203Z,20.65
2023-01-25T13:18:42.022Z,21.90
2023-01-25T13:20:53.119Z,21.92
2023-01-25T13:22:58.798Z,19.95
2023-01-25T13:25:11.635Z,23.20
2023-01-25T13:27:26.267Z,19.10
2023-01-25T13:29:47.142Z,19.05
2023-01-25T13:31:53.952Z,19.88
2023-01-25T13:33:57.482Z,24.00
2023-01-25T13:36:41.160Z,24.20
2023-01-25T13:38:43.894Z,20.98
2023-01-25T13:41:02.553Z,23.42
2023-01-25T13:43:18.376Z,22.00
2023-01-25T13:45:22.384Z,22.02
2023-01-25T13:47:29.303Z,23.15
2023-01-25T13:49:37.917Z,22.25
2023-01-25T13:51:43.178Z,24.70
2023-01-25T13:53:56.398Z,22.00
2023-01-25T13:55:59.610Z,21.27
2023-01-25T13:58:17.845Z,22.50
2023-01-25T14:00:21.916Z,24.23
2023-01-25T14:02:26.813Z,22.98
2023-01-25T14:04:31.613Z,23.48
2023-01-25T14:06:38.023Z,24.38
2023-01-25T14:08:41.140Z,24.05
2023-01-25T14:10:45.437Z,23.33
2023-01-25T14:12:48.221Z,21.23
2023-01-25T14:14:50.944Z,24.80
2023-01-25T14:19:25.532Z,24.92
2023-01-25T14:21:29.087Z,20.35
2023-01-25T14:23:32.623Z,20.60
2023-01-25T14:25:35.379Z,20.65
2023-01-25T14:27:43.745Z,20.80
2023-01-25T14:29:49.728Z,18.85
2023-01-25T14:31:52.636Z,19.20
2023-01-25T14:33:58.255Z,19.00
2023-01-25T14:36:16.352Z,19.85
2023-01-25T14:38:32.428Z,19.40
2023-01-25T14:40:35.200Z,22.73
2023-01-25T14:42:37.971Z,19.08
2023-01-25T14:44:41.328Z,22.17
2023-01-25T14:46:44.207Z,21.38
2023-01-25T14:48:47.092Z,26.10
2023-01-25T14:50:49.967Z,24.77
2023-01-25T14:52:54.068Z,26.23
2023-01-25T14:54:59.670Z,27.17
2023-01-25T14:57:04.587Z,31.50
2023-01-25T14:59:08.101Z,37.72
2023-01-25T15:01:27.109Z,28.83
2023-01-25T15:03:31.771Z,27.92
2023-01-25T15:05:37.116Z,23.35
2023-01-25T15:07:45.679Z,24.70
2023-01-25T15:10:04.255Z,23.67
2023-01-25T15:12:27.053Z,23.10
2023-01-25T15:14:30.001Z,24.85
2023-01-25T15:16:36.512Z,27.27
2023-01-25T15:18:47.271Z,27.42
2023-01-25T15:20:50.123Z,25.88
2023-01-25T15:22:52.947Z,23.35
2023-01-25T15:24:58.514Z,25.75
2023-01-25T15:27:03.308Z,27.70
2023-01-25T15:29:13.601Z,26.60
2023-01-25T15:31:18.866Z,28.65
2023-01-25T15:33:24.635Z,25.77
2023-01-25T15:35:27.775Z,24.75
2023-01-25T15:37:30.550Z,26.27
2023-01-25T15:39:34.862Z,25.58
2023-01-25T15:41:37.609Z,24.73
2023-01-25T15:43:41.873Z,24.38
2023-01-25T15:45:46.726Z,26.05
2023-01-25T15:47:49.777Z,21.70
2023-01-25T15:49:53.799Z,23.52
2023-01-25T15:51:56.830Z,27.25
2023-01-25T15:53:59.912Z,9.45
2023-01-25T15:56:06.873Z,18.67
2023-01-25T15:58:12.335Z,17.52
2023-01-25T16:00:23.104Z,19.65
2023-01-25T16:02:26.512Z,21.55
2023-01-25T16:04:29.274Z,20.92
2023-01-25T16:06:37.618Z,20.90
2023-01-25T16:08:40.476Z,21.20
2023-01-25T16:10:43.143Z,21.52
2023-01-25T16:12:46.261Z,21.08
2023-01-25T16:14:49.160Z,20.95
2023-01-25T16:16:53.883Z,22.98
2023-01-25T16:18:56.619Z,25.33
2023-01-25T16:20:59.290Z,24.15
2023-01-25T16:23:02.071Z,22.50
2023-01-25T16:25:05.054Z,21.00
2023-01-25T16:27:10.023Z,24.08
2023-01-25T16:29:13.770Z,21.23
2023-01-25T16:31:31.202Z,21.88
2023-01-25T16:33:36.682Z,22.63
2023-01-25T16:35:39.417Z,23.65
2023-01-25T16:37:42.107Z,24.95
2023-01-25T16:39:45.412Z,20.27
2023-01-25T16:41:48.448Z,22.10
2023-01-25T16:43:51.637Z,21.58
2023-01-25T16:45:58.668Z,21.98
2023-01-25T16:48:01.904Z,33.97
2023-01-25T16:50:13.465Z,28.90
2023-01-25T16:52:16.186Z,34.20
2023-01-25T16:54:20.438Z,22.08
2023-01-25T16:56:24.806Z,41.33
2023-01-25T16:58:27.709Z,31.48
2023-01-25T17:00:31.689Z,21.95
2023-01-25T17:02:34.643Z,23.58
2023-01-25T17:04:37.404Z,26.48
2023-01-25T17:06:44.041Z,22.17
2023-01-25T17:08:47.119Z,25.73
2023-01-25T17:10:50.567Z,27.13
2023-01-25T17:12:53.560Z,25.75
2023-01-25T17:14:59.404Z,23.40
2023-01-25T17:17:02.212Z,23.55
2023-01-25T17:19:07.052Z,22.00
2023-01-25T17:21:09.809Z,21.20
2023-01-25T17:23:13.899Z,22.77
2023-01-25T17:25:16.707Z,25.67
2023-01-25T17:27:20.955Z,26.38
2023-01-25T17:29:24.239Z,21.75
2023-01-25T17:31:29.869Z,25.10
2023-01-25T17:33:32.774Z,32.83
2023-01-25T17:35:36.365Z,23.88
2023-01-25T17:37:41.032Z,19.77
2023-01-25T17:39:45.209Z,22.90
2023-01-25T17:41:50.559Z,21.48
2023-01-25T17:43:53.408Z,20.10
2023-01-25T17:45:56.164Z,22.00
2023-01-25T17:47:58.964Z,22.60
2023-01-25T17:50:01.712Z,21.67
2023-01-25T17:52:04.657Z,33.65
2023-01-25T17:54:07.493Z,23.17
2023-01-25T17:56:13.712Z,35.10
2023-01-25T17:58:16.475Z,38.10
2023-01-25T18:00:20.121Z,89.30
2023-01-25T18:02:22.922Z,118.63
2023-01-25T18:04:25.773Z,50.60
2023-01-25T18:06:30.267Z,20.38
2023-01-25T18:08:33.094Z,20.83
2023-01-25T18:10:35.884Z,19.27
2023-01-25T18:12:40.190Z,19.88
2023-01-25T18:14:45.027Z,19.55
2023-01-25T18:16:47.847Z,18.63
2023-01-25T18:18:51.854Z,18.95
2023-01-25T18:21:03.530Z,19.63
2023-01-25T18:23:06.359Z,17.15
2023-01-25T18:25:28.915Z,20.15
2023-01-25T18:27:31.724Z,19.42
2023-01-25T18:29:47.196Z,19.38
2023-01-25T18:31:51.056Z,17.40
2023-01-25T18:33:54.050Z,18.55
2023-01-25T18:36:00.835Z,19.92
2023-01-25T18:38:05.300Z,22.15
2023-01-25T18:40:10.685Z,20.08
2023-01-25T18:42:13.594Z,23.27
2023-01-25T18:44:16.434Z,26.00
2023-01-25T18:46:20.605Z,23.40
2023-01-25T18:48:30.842Z,18.83
2023-01-25T18:50:33.820Z,20.83
2023-01-25T18:52:37.027Z,23.23
2023-01-25T18:54:39.905Z,18.15
2023-01-25T18:56:42.649Z,16.88
2023-01-25T18:58:46.249Z,18.90
2023-01-25T19:00:48.997Z,33.17
2023-01-25T19:02:53.356Z,24.67
2023-01-25T19:04:56.221Z,81.38
2023-01-25T19:07:01.473Z,65.07
2023-01-25T19:09:04.420Z,49.58
2023-01-25T19:11:09.836Z,28.83
2023-01-25T19:13:12.611Z,25.88
2023-01-25T19:15:15.617Z,25.55
2023-01-25T19:17:18.418Z,22.15
2023-01-25T19:19:23.538Z,22.00
2023-01-25T19:21:28.887Z,23.42
2023-01-25T19:23:34.336Z,21.23
2023-01-25T19:25:37.109Z,21.42
2023-01-25T19:27:39.879Z,21.23
2023-01-25T19:29:42.679Z,18.77
2023-01-25T19:31:45.536Z,18.40
2023-01-25T19:33:48.998Z,19.20
2023-01-25T19:36:01.360Z,16.10
2023-01-25T19:38:04.207Z,20.13
2023-01-25T19:40:07.941Z,17.73
2023-01-25T19:42:10.779Z,19.90
2023-01-25T19:44:15.178Z,20.50
2023-01-25T19:46:19.356Z,21.67
2023-01-25T19:48:22.131Z,21.90
2023-01-25T19:50:24.923Z,20.58
2023-01-25T19:52:29.365Z,20.38
2023-01-25T19:54:32.106Z,21.58
2023-01-25T19:56:36.846Z,22.05
2023-01-25T19:58:39.549Z,19.55
2023-01-25T20:00:42.678Z,18.38
2023-01-25T20:02:45.765Z,21.80
2023-01-25T20:04:48.628Z,22.23
2023-01-25T20:06:52.576Z,22.08
2023-01-25T20:08:56.834Z,22.25
2023-01-25T20:11:00.340Z,22.65
2023-01-25T20:13:03.118Z,20.50
2023-01-25T20:15:06.947Z,20.58
2023-01-25T20:17:09.717Z,21.77
2023-01-25T20:19:12.982Z,19.10
2023-01-25T20:21:17.755Z,17.33
2023-01-25T20:23:20.513Z,19.92
2023-01-25T20:25:25.823Z,18.38
2023-01-25T20:27:29.115Z,19.38
2023-01-25T20:29:31.822Z,18.27
2023-01-25T20:31:36.515Z,18.15
2023-01-25T20:33:39.298Z,21.80
2023-01-25T20:35:42.291Z,20.17
2023-01-25T20:37:44.992Z,17.85
2023-01-25T20:39:47.730Z,20.27
2023-01-25T20:41:53.639Z,20.73
2023-01-25T20:44:00.147Z,19.45
2023-01-25T20:46:03.333Z,21.92
2023-01-25T20:48:06.482Z,20.50
2023-01-25T20:50:10.533Z,19.67
2023-01-25T20:52:13.915Z,17.23
2023-01-25T20:54:18.100Z,17.67
2023-01-25T20:56:21.057Z,17.15
2023-01-25T20:58:25.250Z,19.13
2023-01-25T21:00:27.994Z,18.25
2023-01-25T21:02:30.757Z,18.80
2023-01-25T21:04:33.524Z,18.83
2023-01-25T21:06:36.468Z,20.85
2023-01-25T21:08:39.205Z,23.73
2023-01-25T21:10:47.166Z,22.85
2023-01-25T21:12:49.921Z,20.63
2023-01-25T21:14:54.048Z,23.05
2023-01-25T21:16:56.834Z,25.75
2023-01-25T21:19:04.675Z,23.25
2023-01-25T21:21:09.691Z,22.45
2023-01-25T21:23:12.452Z,21.42
2023-01-25T21:25:15.290Z,23.60
2023-01-25T21:27:18.056Z,20.95
2023-01-25T21:29:21.163Z,20.05
2023-01-25T21:31:27.618Z,20.80
2023-01-25T21:33:30.400Z,21.10
2023-01-25T21:35:34.081Z,19.20
2023-01-25T21:37:37.304Z,23.02
2023-01-25T21:39:40.063Z,21.23
2023-01-25T21:41:42.770Z,20.38
2023-01-25T21:44:04.143Z,20.92
2023-01-25T21:46:16.224Z,21.77
2023-01-25T21:48:40.400Z,20.55
2023-01-25T21:51:00.842Z,20.70
2023-01-25T21:53:03.588Z,21.05
2023-01-25T21:55:07.282Z,22.85
2023-01-25T21:57:11.564Z,28.35
2023-01-25T21:59:15.239Z,30.15
2023-01-25T22:01:20.184Z,24.48
2023-01-25T22:03:24.596Z,28.27
2023-01-25T22:05:27.411Z,28.08
2023-01-25T22:07:32.190Z,26.30
2023-01-25T22:09:36.320Z,27.23
2023-01-25T22:11:39.118Z,26.42
2023-01-25T22:13:42.391Z,28.55
2023-01-25T22:15:45.211Z,26.85
2023-01-25T22:17:48.029Z,24.85
2023-01-25T22:19:52.139Z,26.80
2023-01-25T22:21:54.921Z,27.45
2023-01-25T22:23:58.519Z,28.42
2023-01-25T22:26:03.010Z,27.27
2023-01-25T22:28:07.337Z,28.35
2023-01-25T22:30:11.814Z,26.95
2023-01-25T22:32:14.800Z,26.55
2023-01-25T22:34:17.634Z,26.25
2023-01-25T22:36:23.715Z,20.40
2023-01-25T22:38:26.442Z,22.63
2023-01-25T22:40:29.088Z,22.85
2023-01-25T22:42:31.788Z,24.92
2023-01-25T22:44:34.471Z,22.13
2023-01-25T22:46:37.978Z,29.65
2023-01-25T22:48:40.658Z,26.00
2023-01-25T22:50:43.303Z,27.25
2023-01-25T22:52:48.905Z,28.13
2023-01-25T22:54:51.811Z,27.25
2023-01-25T22:56:54.484Z,25.40
2023-01-25T22:58:57.176Z,27.95
2023-01-25T23:00:59.881Z,26.02
2023-01-25T23:03:02.636Z,27.13
2023-01-25T23:05:05.973Z,25.00
2023-01-25T23:07:18.415Z,21.20
2023-01-25T23:09:22.511Z,20.63
2023-01-25T23:11:25.928Z,24.80
2023-01-25T23:13:29.591Z,22.17
2023-01-25T23:15:31.502Z,24.63
2023-01-25T23:17:52.647Z,25.02
2023-01-25T23:19:55.386Z,27.92
2023-01-25T23:21:58.019Z,31.17
2023-01-25T23:24:01.612Z,34.35
2023-01-25T23:26:06.091Z,22.98
2023-01-25T23:28:08.803Z,22.98
2023-01-25T23:30:12.476Z,26.48
2023-01-25T23:32:15.384Z,20.38
2023-01-25T23:34:18.154Z,23.85
2023-01-25T23:36:22.384Z,22.67
2023-01-25T23:38:25.096Z,22.33
2023-01-25T23:40:27.818Z,19.98
2023-01-25T23:42:31.906Z,19.20
2023-01-25T23:44:34.625Z,17.50
2023-01-25T23:46:37.523Z,18.17
2023-01-25T23:48:40.269Z,18.88
2023-01-25T23:50:42.954Z,20.15
2023-01-25T23:52:45.632Z,17.42
2023-01-25T23:54:48.320Z,18.42
2023-01-25T23:56:51.040Z,19.35
2023-01-25T23:58:55.571Z,21.17
